createdAt,value
2023-01-27T00:00:24.580Z,0.53
2023-01-27T00:03:52.362Z,0.53
2023-01-27T00:07:20.105Z,0.57
2023-01-27T00:10:47.873Z,0.53
2023-01-27T00:14:16.161Z,0.54
2023-01-27T00:17:43.962Z,0.56
2023-01-27T00:21:11.761Z,0.54
2023-01-27T00:24:39.499Z,0.53
2023-01-27T00:27:28.024Z,0.54
2023-01-27T00:30:55.931Z,0.55
2023-01-27T00:34:23.688Z,0.58
2023-01-27T00:37:51.608Z,0.55
2023-01-27T00:41:19.291Z,0.55
2023-01-27T00:44:28.346Z,0.52
2023-01-27T00:47:55.981Z,0.52
2023-01-27T00:51:23.714Z,0.50
2023-01-27T00:54:51.590Z,0.51
2023-01-27T00:58:19.382Z,0.53
2023-01-27T01:01:47.096Z,0.50
2023-01-27T01:05:14.805Z,0.49
2023-01-27T01:08:42.570Z,0.52
2023-01-27T01:11:51.580Z,0.50
2023-01-27T01:15:19.297Z,0.41
2023-01-27T01:18:47.236Z,0.61
2023-01-27T01:22:15.165Z,0.57
2023-01-27T01:25:42.940Z,0.49
2023-01-27T01:29:10.533Z,0.40
2023-01-27T01:32:38.437Z,0.40
2023-01-27T01:36:06.212Z,0.37
2023-01-27T01:39:33.851Z,0.35
2023-01-27T01:43:01.538Z,0.34
2023-01-27T01:46:29.379Z,0.31
2023-01-27T01:49:57.103Z,0.30
2023-01-27T01:53:24.852Z,0.30
2023-01-27T01:56:52.680Z,0.26
2023-01-27T02:00:20.330Z,0.24
2023-01-27T02:03:48.217Z,0.23
2023-01-27T02:07:16.194Z,0.19
2023-01-27T02:10:44.055Z,0.18
2023-01-27T02:14:11.790Z,0.18
2023-01-27T02:17:39.423Z,0.18
2023-01-27T02:21:06.872Z,0.15
2023-01-27T02:24:35.077Z,0.14
2023-01-27T02:28:02.856Z,0.10
2023-01-27T02:31:30.679Z,0.11
2023-01-27T02:34:58.333Z,0.09
2023-01-27T02:38:25.921Z,0.07
2023-01-27T02:41:34.647Z,0.10
2023-01-27T02:45:02.411Z,0.08
2023-01-27T02:48:30.105Z,0.07
2023-01-27T02:51:39.053Z,0.09
2023-01-27T02:55:06.846Z,0.13
2023-01-27T02:58:34.672Z,0.12
2023-01-27T03:02:02.521Z,0.11
2023-01-27T03:05:30.941Z,0.13
2023-01-27T03:08:58.541Z,0.09
2023-01-27T03:12:26.413Z,0.05
2023-01-27T03:15:35.167Z,0.01
2023-01-27T03:19:02.949Z,0.06
2023-01-27T03:22:11.685Z,0.04
2023-01-27T03:25:39.617Z,0.02
2023-01-27T03:29:07.549Z,0.03
2023-01-27T03:32:15.420Z,0.05
2023-01-27T03:35:43.531Z,0.09
2023-01-27T03:39:11.270Z,0.06
2023-01-27T03:42:39.281Z,0.06
2023-01-27T03:46:07.185Z,0.04
2023-01-27T03:49:34.908Z,0.02
2023-01-27T03:53:02.631Z,0.03
2023-01-27T03:56:33.075Z,0.04
2023-01-27T04:00:00.904Z,0.04
2023-01-27T04:03:28.903Z,0.03
2023-01-27T04:06:57.125Z,0.05
2023-01-27T04:10:24.866Z,-0.03
2023-01-27T04:13:52.848Z,-0.02
2023-01-27T04:17:20.607Z,-0.03
2023-01-27T04:20:48.247Z,-0.08
2023-01-27T04:23:56.465Z,-0.05
2023-01-27T04:26:26.427Z,-0.04
2023-01-27T04:29:34.837Z,-0.06
2023-01-27T04:32:42.985Z,-0.06
2023-01-27T04:36:10.880Z,-0.11
2023-01-27T04:39:38.723Z,-0.07
2023-01-27T04:43:06.468Z,0.02
2023-01-27T04:46:34.202Z,-0.01
2023-01-27T04:50:02.069Z,-0.02
2023-01-27T04:53:29.769Z,-0.02
2023-01-27T04:56:38.142Z,-0.01
2023-01-27T04:59:46.363Z,-0.02
2023-01-27T05:03:14.265Z,0.01
2023-01-27T05:06:42.078Z,0.03
2023-01-27T05:10:10.152Z,0.03
2023-01-27T05:13:38.216Z,0.03
2023-01-27T05:17:05.899Z,0.06
2023-01-27T05:20:33.613Z,0.04
2023-01-27T05:24:01.500Z,0.09
2023-01-27T05:27:29.354Z,0.12
2023-01-27T05:30:57.284Z,0.07
2023-01-27T05:34:25.445Z,0.05
2023-01-27T05:37:53.288Z,0.10
2023-01-27T05:41:21.249Z,0.16
2023-01-27T05:44:30.175Z,0.15
2023-01-27T05:47:58.141Z,0.18
2023-01-27T05:51:06.997Z,0.17
2023-01-27T05:54:35.001Z,0.11
2023-01-27T05:58:02.896Z,0.12
2023-01-27T06:01:31.266Z,0.12
2023-01-27T06:04:59.120Z,0.17
2023-01-27T06:08:26.977Z,0.19
2023-01-27T06:11:35.612Z,0.20
2023-01-27T06:15:03.880Z,0.22
2023-01-27T06:17:52.939Z,0.23
2023-01-27T06:20:41.816Z,0.20
2023-01-27T06:24:11.372Z,0.18
2023-01-27T06:27:24.994Z,0.20
2023-01-27T06:30:36.493Z,0.20
2023-01-27T06:33:04.320Z,0.23
2023-01-27T06:35:32.912Z,0.23
2023-01-27T06:38:06.219Z,0.22
2023-01-27T06:40:35.089Z,0.24
2023-01-27T06:43:24.836Z,0.21
2023-01-27T06:45:58.820Z,0.18
2023-01-27T06:48:35.845Z,0.15
2023-01-27T06:51:24.062Z,0.11
2023-01-27T06:53:53.911Z,0.12
2023-01-27T06:56:42.574Z,0.12
2023-01-27T06:59:32.378Z,0.16
2023-01-27T07:02:40.825Z,0.12
2023-01-27T07:05:29.565Z,0.18
2023-01-27T07:08:01.587Z,0.18
2023-01-27T07:10:58.780Z,0.22
2023-01-27T07:13:46.770Z,0.25
2023-01-27T07:16:35.160Z,0.26
2023-01-27T07:19:24.079Z,0.31
2023-01-27T07:21:53.619Z,0.32
2023-01-27T07:24:42.412Z,0.25
2023-01-27T07:27:11.337Z,0.28
2023-01-27T07:30:20.056Z,0.30
2023-01-27T07:33:08.309Z,0.33
2023-01-27T07:36:35.930Z,0.41
2023-01-27T07:39:04.312Z,0.40
2023-01-27T07:42:16.076Z,0.43
2023-01-27T07:45:04.851Z,0.46
2023-01-27T07:47:54.090Z,0.54
2023-01-27T07:50:21.751Z,0.58
2023-01-27T07:53:33.804Z,0.65
2023-01-27T07:56:23.381Z,0.65
2023-01-27T07:59:32.061Z,0.70
2023-01-27T08:03:00.220Z,0.73
2023-01-27T08:06:07.773Z,0.75
2023-01-27T08:08:37.998Z,0.76
2023-01-27T08:11:26.820Z,0.74
2023-01-27T08:14:34.531Z,0.80
2023-01-27T08:17:42.432Z,0.75
2023-01-27T08:20:32.388Z,0.81
2023-01-27T08:23:40.711Z,0.78
2023-01-27T08:26:33.594Z,0.84
2023-01-27T08:29:23.194Z,0.87
2023-01-27T08:32:15.238Z,0.93
2023-01-27T08:35:21.681Z,0.93
2023-01-27T08:38:29.479Z,0.96
2023-01-27T08:41:37.330Z,0.91
2023-01-27T08:44:26.114Z,0.91
2023-01-27T08:47:34.080Z,0.96
2023-01-27T08:50:22.506Z,0.85
2023-01-27T08:53:50.341Z,0.88
2023-01-27T08:56:59.919Z,0.88
2023-01-27T09:00:07.814Z,0.92
2023-01-27T09:03:35.688Z,0.90
2023-01-27T09:06:23.851Z,0.83
2023-01-27T09:09:13.644Z,0.86
2023-01-27T09:11:41.397Z,0.93
2023-01-27T09:14:40.866Z,0.96
2023-01-27T09:17:48.809Z,0.95
2023-01-27T09:20:17.625Z,0.91
2023-01-27T09:23:45.415Z,0.95
2023-01-27T09:26:14.019Z,0.99
2023-01-27T09:29:41.787Z,0.98
2023-01-27T09:32:50.043Z,0.93
2023-01-27T09:36:17.581Z,0.95
2023-01-27T09:38:49.399Z,0.99
2023-01-27T09:41:57.637Z,1.12
2023-01-27T09:44:27.844Z,1.20
2023-01-27T09:46:57.824Z,1.29
2023-01-27T09:50:23.799Z,1.40
2023-01-27T09:53:31.739Z,1.51
2023-01-27T09:56:21.586Z,1.54
2023-01-27T09:58:50.781Z,1.57
2023-01-27T10:01:58.554Z,1.56
2023-01-27T10:04:28.438Z,1.50
2023-01-27T10:07:16.715Z,1.52
2023-01-27T10:10:25.948Z,1.43
2023-01-27T10:12:56.867Z,1.47
2023-01-27T10:16:04.837Z,1.48
2023-01-27T10:19:12.596Z,1.61
2023-01-27T10:21:40.242Z,1.60
2023-01-27T10:25:07.976Z,1.62
2023-01-27T10:27:38.511Z,1.67
2023-01-27T10:30:46.354Z,1.70
2023-01-27T10:33:24.029Z,1.81
2023-01-27T10:36:11.872Z,1.80
2023-01-27T10:39:04.083Z,1.88
2023-01-27T10:41:32.058Z,1.96
2023-01-27T10:44:39.852Z,1.92
2023-01-27T10:47:30.838Z,2.07
2023-01-27T10:50:38.876Z,2.11
2023-01-27T10:53:12.574Z,1.90
2023-01-27T10:56:20.651Z,1.93
2023-01-27T10:58:50.893Z,1.95
2023-01-27T11:02:18.644Z,1.74
2023-01-27T11:05:26.612Z,1.70
2023-01-27T11:07:54.567Z,1.64
2023-01-27T11:10:22.447Z,1.63
2023-01-27T11:13:11.263Z,1.73
2023-01-27T11:16:19.608Z,1.78
2023-01-27T11:19:28.642Z,1.81
2023-01-27T11:22:07.137Z,1.64
2023-01-27T11:25:24.658Z,1.72
2023-01-27T11:28:52.727Z,1.68
2023-01-27T11:31:23.081Z,1.78
2023-01-27T11:34:51.001Z,1.91
2023-01-27T11:37:19.442Z,2.01
2023-01-27T11:40:29.032Z,1.90
2023-01-27T11:43:01.041Z,1.84
2023-01-27T11:46:28.800Z,1.83
2023-01-27T11:49:16.477Z,1.82
2023-01-27T11:52:04.411Z,1.74
2023-01-27T11:54:54.711Z,1.76
2023-01-27T11:58:02.727Z,1.75
2023-01-27T12:00:31.919Z,1.69
2023-01-27T12:03:59.847Z,1.65
2023-01-27T12:07:27.601Z,1.57
2023-01-27T12:10:16.900Z,1.52
2023-01-27T12:13:43.401Z,1.44
2023-01-27T12:16:33.655Z,1.41
2023-01-27T12:19:41.487Z,1.40
2023-01-27T12:22:10.923Z,1.41
2023-01-27T12:25:19.365Z,1.33
2023-01-27T12:28:47.267Z,1.38
2023-01-27T12:32:15.143Z,1.28
2023-01-27T12:35:23.920Z,1.06
2023-01-27T12:38:51.857Z,1.06
2023-01-27T12:42:00.703Z,0.95
2023-01-27T12:45:10.350Z,1.04
2023-01-27T12:47:39.087Z,1.04
2023-01-27T12:50:27.102Z,1.11
2023-01-27T12:53:34.855Z,1.23
2023-01-27T12:56:44.747Z,1.10
2023-01-27T12:59:56.373Z,1.11
2023-01-27T13:02:59.801Z,1.17
2023-01-27T13:05:48.227Z,1.14
2023-01-27T13:09:16.043Z,1.18
2023-01-27T13:12:04.798Z,1.08
2023-01-27T13:15:13.535Z,1.05
2023-01-27T13:18:22.301Z,0.94
2023-01-27T13:21:30.973Z,1.02
2023-01-27T13:23:59.564Z,1.07
2023-01-27T13:27:08.236Z,1.06
2023-01-27T13:29:58.281Z,1.00
2023-01-27T13:33:06.399Z,1.02
2023-01-27T13:36:15.996Z,1.02
2023-01-27T13:38:44.687Z,1.05
2023-01-27T13:42:12.476Z,1.07
2023-01-27T13:45:21.560Z,1.10
2023-01-27T13:48:29.934Z,0.96
2023-01-27T13:51:39.985Z,0.96
2023-01-27T13:54:49.709Z,1.00
2023-01-27T13:57:19.679Z,1.04
2023-01-27T14:00:27.939Z,1.10
2023-01-27T14:03:16.827Z,1.01
2023-01-27T14:06:44.628Z,1.08
2023-01-27T14:09:13.054Z,1.04
2023-01-27T14:12:21.628Z,1.08
2023-01-27T14:15:10.132Z,1.10
2023-01-27T14:18:18.100Z,1.04
2023-01-27T14:20:46.223Z,1.00
2023-01-27T14:23:34.921Z,1.04
2023-01-27T14:27:02.766Z,1.07
2023-01-27T14:30:30.542Z,0.97
2023-01-27T14:33:01.318Z,0.96
2023-01-27T14:36:10.121Z,0.94
2023-01-27T14:39:02.898Z,0.98
2023-01-27T14:41:51.292Z,0.98
2023-01-27T14:44:44.330Z,1.04
2023-01-27T14:48:09.962Z,0.99
2023-01-27T14:50:58.433Z,0.95
2023-01-27T14:54:26.285Z,0.89
2023-01-27T14:57:53.919Z,0.84
2023-01-27T15:01:02.922Z,0.83
2023-01-27T15:04:30.465Z,0.78
2023-01-27T15:07:58.580Z,0.74
2023-01-27T15:10:34.966Z,0.69
2023-01-27T15:14:02.846Z,0.67
2023-01-27T15:17:30.890Z,0.66
2023-01-27T15:20:58.831Z,0.65
2023-01-27T15:24:26.609Z,0.67
2023-01-27T15:27:35.554Z,0.70
2023-01-27T15:31:03.266Z,0.75
2023-01-27T15:34:31.019Z,0.66
2023-01-27T15:37:39.388Z,0.71
2023-01-27T15:40:28.086Z,0.74
2023-01-27T15:43:55.866Z,0.73
2023-01-27T15:47:23.720Z,0.71
2023-01-27T15:50:51.524Z,0.67
2023-01-27T15:53:59.380Z,0.69
2023-01-27T15:57:27.280Z,0.68
2023-01-27T16:00:54.805Z,0.69
2023-01-27T16:04:22.479Z,0.66
2023-01-27T16:07:30.208Z,0.64
2023-01-27T16:10:57.761Z,0.60
2023-01-27T16:14:25.488Z,0.55
2023-01-27T16:17:34.003Z,0.61
2023-01-27T16:20:42.602Z,0.62
2023-01-27T16:23:51.295Z,0.63
2023-01-27T16:26:59.867Z,0.56
2023-01-27T16:30:27.759Z,0.53
2023-01-27T16:33:55.655Z,0.51
2023-01-27T16:37:25.968Z,0.47
2023-01-27T16:40:34.374Z,0.48
2023-01-27T16:44:01.990Z,0.45
2023-01-27T16:47:16.748Z,0.51
2023-01-27T16:50:39.469Z,0.52
2023-01-27T16:53:51.126Z,0.49
2023-01-27T16:57:18.924Z,0.51
2023-01-27T17:00:07.866Z,0.51
2023-01-27T17:03:16.517Z,0.52
2023-01-27T17:06:04.566Z,0.55
2023-01-27T17:09:32.261Z,0.57
2023-01-27T17:13:00.104Z,0.61
2023-01-27T17:16:27.943Z,0.63
2023-01-27T17:19:55.600Z,0.61
2023-01-27T17:23:23.368Z,0.55
2023-01-27T17:26:41.835Z,0.58
2023-01-27T17:29:31.131Z,0.57
2023-01-27T17:32:25.398Z,0.59
2023-01-27T17:35:53.268Z,0.63
2023-01-27T17:39:21.014Z,0.55
2023-01-27T17:42:29.687Z,0.50
2023-01-27T17:45:57.449Z,0.55
2023-01-27T17:49:25.238Z,0.57
2023-01-27T17:52:53.278Z,0.58
2023-01-27T17:56:03.426Z,0.59
2023-01-27T17:59:26.461Z,0.64
2023-01-27T18:02:54.706Z,0.68
2023-01-27T18:06:22.352Z,0.78
2023-01-27T18:09:30.262Z,0.82
2023-01-27T18:12:45.628Z,0.82
2023-01-27T18:16:13.339Z,0.89
2023-01-27T18:19:05.653Z,0.94
2023-01-27T18:21:54.369Z,0.92
2023-01-27T18:25:22.289Z,0.93
2023-01-27T18:28:10.062Z,0.90
2023-01-27T18:31:18.063Z,0.90
2023-01-27T18:34:45.569Z,0.79
2023-01-27T18:37:53.964Z,0.80
2023-01-27T18:41:02.157Z,0.77
2023-01-27T18:44:09.787Z,0.76
2023-01-27T18:47:18.413Z,0.80
2023-01-27T18:50:46.202Z,0.73
2023-01-27T18:54:14.058Z,0.73
2023-01-27T18:57:42.023Z,0.71
2023-01-27T19:00:50.876Z,0.64
2023-01-27T19:04:18.809Z,0.62
2023-01-27T19:07:46.608Z,0.64
2023-01-27T19:10:35.569Z,0.61
2023-01-27T19:14:03.771Z,0.56
2023-01-27T19:17:31.681Z,0.55
2023-01-27T19:20:40.112Z,0.57
2023-01-27T19:24:07.721Z,0.59
2023-01-27T19:26:56.647Z,0.56
2023-01-27T19:29:45.543Z,0.55
2023-01-27T19:32:53.481Z,0.54
2023-01-27T19:35:44.115Z,0.53
2023-01-27T19:38:54.140Z,0.54
2023-01-27T19:41:23.658Z,0.54
2023-01-27T19:44:32.427Z,0.51
2023-01-27T19:48:00.527Z,0.58
2023-01-27T19:50:29.087Z,0.62
2023-01-27T19:53:57.212Z,0.66
2023-01-27T19:57:25.064Z,0.72
2023-01-27T20:00:33.803Z,0.74
2023-01-27T20:04:01.969Z,0.76
2023-01-27T20:06:52.431Z,0.82
2023-01-27T20:10:00.536Z,0.84
2023-01-27T20:13:28.287Z,0.89
2023-01-27T20:16:37.061Z,0.83
2023-01-27T20:20:04.702Z,0.90
2023-01-27T20:23:13.356Z,0.86
2023-01-27T20:26:22.579Z,0.85
2023-01-27T20:29:30.526Z,0.85
2023-01-27T20:31:59.870Z,0.86
2023-01-27T20:35:27.568Z,0.92
2023-01-27T20:38:36.510Z,0.97
2023-01-27T20:41:44.394Z,0.98
2023-01-27T20:45:12.414Z,1.00
2023-01-27T20:48:40.025Z,0.98
2023-01-27T20:51:48.109Z,0.95
2023-01-27T20:55:16.981Z,0.92
2023-01-27T20:58:44.403Z,0.96
2023-01-27T21:01:53.072Z,0.96
2023-01-27T21:05:01.110Z,0.99
2023-01-27T21:08:10.275Z,0.99
2023-01-27T21:11:18.411Z,0.96
2023-01-27T21:14:26.483Z,0.89
2023-01-27T21:17:17.297Z,0.81
2023-01-27T21:20:06.584Z,0.81
2023-01-27T21:22:54.814Z,0.73
2023-01-27T21:26:04.880Z,0.68
2023-01-27T21:28:54.657Z,0.71
2023-01-27T21:31:25.739Z,0.68
2023-01-27T21:34:53.361Z,0.77
2023-01-27T21:38:20.941Z,0.72
2023-01-27T21:41:48.888Z,0.74
2023-01-27T21:44:37.010Z,0.78
2023-01-27T21:47:45.676Z,0.80
2023-01-27T21:50:54.490Z,0.81
2023-01-27T21:53:43.016Z,0.84
2023-01-27T21:56:32.180Z,0.87
2023-01-27T21:59:59.788Z,0.82
2023-01-27T22:02:48.227Z,0.82
2023-01-27T22:05:36.647Z,0.80
2023-01-27T22:09:04.429Z,0.80
2023-01-27T22:12:12.309Z,0.83
2023-01-27T22:15:21.020Z,0.85
2023-01-27T22:18:48.948Z,0.86
2023-01-27T22:21:56.835Z,0.85
2023-01-27T22:24:45.427Z,0.89
2023-01-27T22:28:13.284Z,0.90
2023-01-27T22:31:01.229Z,0.91
2023-01-27T22:34:09.170Z,0.93
2023-01-27T22:37:36.879Z,0.98
2023-01-27T22:41:04.629Z,0.99
2023-01-27T22:44:32.469Z,0.97
2023-01-27T22:47:20.972Z,0.95
2023-01-27T22:50:29.573Z,0.98
2023-01-27T22:53:39.400Z,0.98
2023-01-27T22:57:07.318Z,0.99
2023-01-27T22:59:56.223Z,1.05
2023-01-27T23:03:23.937Z,1.06
2023-01-27T23:06:51.542Z,1.03
2023-01-27T23:10:19.474Z,1.00
2023-01-27T23:13:27.558Z,1.02
2023-01-27T23:16:55.413Z,0.99
2023-01-27T23:19:44.133Z,0.94
2023-01-27T23:22:52.178Z,0.95
2023-01-27T23:26:20.008Z,0.97
2023-01-27T23:28:47.731Z,0.95
2023-01-27T23:32:15.507Z,0.96
2023-01-27T23:35:43.264Z,0.99
2023-01-27T23:39:11.152Z,0.99
2023-01-27T23:42:00.108Z,1.02
2023-01-27T23:45:09.981Z,1.05
2023-01-27T23:47:59.524Z,1.02
2023-01-27T23:51:07.251Z,1.03
2023-01-27T23:53:55.937Z,1.01
2023-01-27T23:57:23.465Z,1.04
